Lincoln, NM (88338)

9:05 PM MDT on August 23, 2016 (GMT -0600)
Upper Hondo Soil & Water Conservation District | | Change Station

Elev 6394 ft 33.55 °N, 105.58 °W | Updated 15 seconds ago

Partly Cloudy
Partly Cloudy
66.7 °F
Feels Like 66.7 °F
N
0.0
Wind Variable Wind from ESE
Gusts 0.0 mph

Today
High -- | Low -- °F
--% Chance of Precip.
Yesterday
High -- | Low -- °F
Precip. -- in
Pressure 30.29 in
Visibility 10.0 miles
Clouds
Dew Point 59 °F
Humidity 77%
Rainfall 0.00 in
Snow Depth Not available.
6:30 AM 7:38 PM
Waning Gibbous, 62% visible
METAR KSRR 240255Z AUTO 15003KT 10SM 17/13 A3029 RMK AO2
Pressure 30.29 in
Visibility 10.0 miles
Clouds
Dew Point 59 °F
Humidity 77%
Rainfall 0.00 in
Snow Depth Not available.
6:30 AM 7:38 PM
Waning Gibbous, 62% visible
METAR KSRR 240255Z AUTO 15003KT 10SM 17/13 A3029 RMK AO2

10-Day Weather Forecast

Almanac

Astronomy

Aug. 23, 2016 Rise Set
Actual Time
Civil Twilight
Nautical Twilight
Astronomical Twilight
Moon
Length of Visible Light
Length of Day
Tomorrow will be .
, % of the Moon is Illuminated

Today's Extremes

State Highs State Lows

Community

WunderPhotos

Upload Photos

1,934,538 photos uploaded!

WunderBlog® & News

Nearby

Air Quality

  Air Quality AQ Index Pollutant
Not available.

Snow Depth

Station Depth Elevation

Earthquake Activity

City Distance Mag. Time & Date
Minimum magnitude displayed is 2.5.

Coastal Water Temperatures

Place Temperature

Stations

Nearby Weather Stations

Station Location Temp. Windchill Dew Point Humidity Wind Precip. Elev Updated Type
                   

Watches & Warnings

There are currently no watches in effect.